createdAt,value
2018-04-11T00:00:41.507Z,0.00
2018-04-11T00:01:41.527Z,0.00
2018-04-11T00:02:41.553Z,0.00
2018-04-11T00:03:41.576Z,0.00
2018-04-11T00:04:41.592Z,0.00
2018-04-11T00:05:41.616Z,0.00
2018-04-11T00:06:41.635Z,0.00
2018-04-11T00:07:41.658Z,0.00
2018-04-11T00:08:41.674Z,0.00
2018-04-11T00:09:41.705Z,0.00
2018-04-11T00:10:41.726Z,0.00
2018-04-11T00:11:41.742Z,0.00
2018-04-11T00:12:41.762Z,0.00
2018-04-11T00:13:41.782Z,0.00
2018-04-11T00:14:41.802Z,0.00
2018-04-11T00:15:41.824Z,0.00
2018-04-11T00:16:41.851Z,0.00
2018-04-11T00:17:41.878Z,0.00
2018-04-11T00:18:41.892Z,0.00
2018-04-11T00:19:41.915Z,0.00
2018-04-11T00:20:41.940Z,0.00
2018-04-11T00:21:41.955Z,0.00
2018-04-11T00:22:42.013Z,0.00
2018-04-11T00:23:42.000Z,0.00
2018-04-11T00:24:42.020Z,0.00
2018-04-11T00:25:42.042Z,0.00
2018-04-11T00:26:42.062Z,0.00
2018-04-11T00:27:42.081Z,0.00
2018-04-11T00:28:42.110Z,0.00
2018-04-11T00:29:42.124Z,0.00
2018-04-11T00:30:42.148Z,0.00
2018-04-11T00:31:42.171Z,0.00
2018-04-11T00:32:42.190Z,0.00
2018-04-11T00:33:42.207Z,0.00
2018-04-11T00:34:42.229Z,0.00
2018-04-11T00:35:42.255Z,0.00
2018-04-11T00:36:42.269Z,0.00
2018-04-11T00:37:42.292Z,0.00
2018-04-11T00:38:42.315Z,0.00
2018-04-11T00:39:42.329Z,0.00
2018-04-11T00:40:42.351Z,0.00
2018-04-11T00:41:42.383Z,0.00
2018-04-11T00:42:42.399Z,0.00
2018-04-11T00:43:42.421Z,0.00
2018-04-11T00:44:42.440Z,0.00
2018-04-11T00:45:42.463Z,0.00
2018-04-11T00:46:42.483Z,0.00
2018-04-11T00:47:42.502Z,0.00
2018-04-11T00:48:42.523Z,0.00
2018-04-11T00:49:42.550Z,0.00
2018-04-11T00:50:42.564Z,0.00
2018-04-11T00:51:42.592Z,0.00
2018-04-11T00:52:42.608Z,0.00
2018-04-11T00:53:42.633Z,0.00
2018-04-11T00:54:42.648Z,0.00
2018-04-11T00:55:42.677Z,0.00
2018-04-11T00:56:42.692Z,0.00
2018-04-11T00:57:42.715Z,0.00
2018-04-11T00:58:42.736Z,0.00
2018-04-11T00:59:42.752Z,0.00
2018-04-11T01:00:42.785Z,0.00
2018-04-11T01:01:42.796Z,0.00
2018-04-11T01:02:42.820Z,0.00
2018-04-11T01:03:42.843Z,0.00
2018-04-11T01:04:42.862Z,0.00
2018-04-11T01:05:42.905Z,0.00
2018-04-11T01:06:42.901Z,0.00
2018-04-11T01:07:42.934Z,0.00
2018-04-11T01:08:42.949Z,0.00
2018-04-11T01:09:42.965Z,0.00
2018-04-11T01:10:42.985Z,0.00
2018-04-11T01:11:43.004Z,0.00
2018-04-11T01:12:43.029Z,0.00
2018-04-11T01:13:43.059Z,0.00
2018-04-11T01:14:43.069Z,0.00
2018-04-11T01:15:43.109Z,0.00
2018-04-11T01:16:43.114Z,0.00
2018-04-11T01:17:43.135Z,0.00
2018-04-11T01:18:43.154Z,0.00
2018-04-11T01:19:43.178Z,0.00
2018-04-11T01:20:43.198Z,0.00
2018-04-11T01:21:43.219Z,0.00
2018-04-11T01:22:43.245Z,0.00
2018-04-11T01:23:43.267Z,0.00
2018-04-11T01:24:43.285Z,0.00
2018-04-11T01:25:43.305Z,0.00
2018-04-11T01:26:43.327Z,0.00
2018-04-11T01:27:43.344Z,0.00
2018-04-11T01:28:43.375Z,0.00
2018-04-11T01:29:43.389Z,0.00
2018-04-11T01:30:43.485Z,0.00
2018-04-11T01:31:43.430Z,0.00
2018-04-11T01:32:43.456Z,0.00
2018-04-11T01:33:43.472Z,0.00
2018-04-11T01:34:43.495Z,0.00
2018-04-11T01:35:43.514Z,0.00
2018-04-11T01:36:43.535Z,0.00
2018-04-11T01:37:43.564Z,0.00
2018-04-11T01:38:43.584Z,0.00
2018-04-11T01:39:43.596Z,0.00
2018-04-11T01:40:43.622Z,0.00
2018-04-11T01:41:43.637Z,0.00
2018-04-11T01:42:43.666Z,0.00
2018-04-11T01:43:43.681Z,0.00
2018-04-11T01:44:43.705Z,0.00
2018-04-11T01:45:43.722Z,0.00
2018-04-11T01:46:43.743Z,0.00
2018-04-11T01:47:43.766Z,0.00
2018-04-11T01:48:43.789Z,0.00
2018-04-11T01:49:43.812Z,0.00
2018-04-11T01:50:43.849Z,0.00
2018-04-11T01:51:43.853Z,0.00
2018-04-11T01:52:43.890Z,0.00
2018-04-11T01:53:43.893Z,0.00
2018-04-11T01:54:43.912Z,0.00
2018-04-11T01:55:43.936Z,0.00
2018-04-11T01:56:43.957Z,0.00
2018-04-11T01:57:43.981Z,0.00
2018-04-11T01:58:44.002Z,0.00
2018-04-11T01:59:44.022Z,0.00
2018-04-11T02:00:44.046Z,0.00
2018-04-11T02:01:44.064Z,0.00
2018-04-11T02:02:44.087Z,0.00
2018-04-11T02:03:44.111Z,0.00
2018-04-11T02:04:44.128Z,0.00
2018-04-11T02:05:44.153Z,0.00
2018-04-11T02:06:44.177Z,0.00
2018-04-11T02:07:44.199Z,0.00
2018-04-11T02:08:44.212Z,0.00
2018-04-11T02:09:44.302Z,0.00
2018-04-11T02:10:44.258Z,0.00
2018-04-11T02:11:44.277Z,0.00
2018-04-11T02:12:44.301Z,0.00
2018-04-11T02:13:44.320Z,0.00
2018-04-11T02:14:44.336Z,0.00
2018-04-11T02:15:44.357Z,0.00
2018-04-11T02:16:44.385Z,0.00
2018-04-11T02:17:44.402Z,0.00
2018-04-11T02:18:44.431Z,0.00
2018-04-11T02:19:44.445Z,0.00
2018-04-11T02:20:44.463Z,0.00
2018-04-11T02:21:44.486Z,0.00
2018-04-11T02:22:44.506Z,0.00
2018-04-11T02:23:44.527Z,0.00
2018-04-11T02:24:44.551Z,0.00
2018-04-11T02:25:44.574Z,0.00
2018-04-11T02:26:44.591Z,0.00
2018-04-11T02:27:44.610Z,0.00
2018-04-11T02:28:44.631Z,0.00
2018-04-11T02:29:44.660Z,0.00
2018-04-11T02:30:44.675Z,0.00
2018-04-11T02:31:44.698Z,0.00
2018-04-11T02:32:44.719Z,0.00
2018-04-11T02:33:44.742Z,0.00
2018-04-11T02:34:44.760Z,0.00
2018-04-11T02:35:44.776Z,0.00
2018-04-11T02:36:44.803Z,0.00
2018-04-11T02:37:44.828Z,0.00
2018-04-11T02:38:44.842Z,0.00
2018-04-11T02:39:44.864Z,0.00
2018-04-11T02:40:44.888Z,0.00
2018-04-11T02:41:44.901Z,0.00
2018-04-11T02:42:44.926Z,0.00
2018-04-11T02:43:44.945Z,0.00
2018-04-11T02:44:44.997Z,0.00
2018-04-11T02:45:45.009Z,0.00
2018-04-11T02:46:45.011Z,0.00
2018-04-11T02:47:45.039Z,0.00
2018-04-11T02:48:45.048Z,0.00
2018-04-11T02:49:45.111Z,0.00
2018-04-11T02:50:45.093Z,0.00
2018-04-11T02:51:45.121Z,0.00
2018-04-11T02:52:45.133Z,0.00
2018-04-11T02:53:45.156Z,0.00
2018-04-11T02:54:45.173Z,0.00
2018-04-11T02:55:45.192Z,0.00
2018-04-11T02:56:45.219Z,0.00
2018-04-11T02:57:45.238Z,0.00
2018-04-11T02:58:45.263Z,0.00
2018-04-11T02:59:45.287Z,0.00
2018-04-11T03:00:45.299Z,0.00
2018-04-11T03:01:45.323Z,0.00
2018-04-11T03:02:45.344Z,0.00
2018-04-11T03:03:45.372Z,0.00
2018-04-11T03:04:45.389Z,0.00
2018-04-11T03:05:45.409Z,0.00
2018-04-11T03:06:45.428Z,0.00
2018-04-11T03:07:45.449Z,0.00
2018-04-11T03:08:45.473Z,0.00
2018-04-11T03:09:45.497Z,0.00
2018-04-11T03:10:45.513Z,0.00
2018-04-11T03:11:45.536Z,0.00
2018-04-11T03:12:45.553Z,0.00
2018-04-11T03:13:45.580Z,0.00
2018-04-11T03:14:45.600Z,0.00
2018-04-11T03:15:45.632Z,0.00
2018-04-11T03:16:45.642Z,0.00
2018-04-11T03:17:45.664Z,0.00
2018-04-11T03:18:45.689Z,0.00
2018-04-11T03:19:45.704Z,0.00
2018-04-11T03:20:45.731Z,0.00
2018-04-11T03:21:45.750Z,0.00
2018-04-11T03:22:45.768Z,0.00
2018-04-11T03:23:45.789Z,0.00
2018-04-11T03:24:45.810Z,0.00
2018-04-11T03:25:45.832Z,0.00
2018-04-11T03:26:45.851Z,0.00
2018-04-11T03:27:45.872Z,0.00
2018-04-11T03:28:45.896Z,0.00
2018-04-11T03:29:45.912Z,0.00
2018-04-11T03:30:45.938Z,0.00
2018-04-11T03:31:45.958Z,0.00
2018-04-11T03:32:45.982Z,0.00
2018-04-11T03:33:46.000Z,0.00
2018-04-11T03:34:46.020Z,0.00
2018-04-11T03:35:46.036Z,0.00
2018-04-11T03:36:46.068Z,0.00
2018-04-11T03:37:46.081Z,0.00
2018-04-11T03:38:46.097Z,0.00
2018-04-11T03:39:46.124Z,0.00
2018-04-11T03:40:46.141Z,0.00
2018-04-11T03:41:46.161Z,0.00
2018-04-11T03:42:46.189Z,0.00
2018-04-11T03:43:46.206Z,0.00
2018-04-11T03:44:46.226Z,0.00
2018-04-11T03:45:46.245Z,0.00
2018-04-11T03:46:46.265Z,0.00
2018-04-11T03:47:46.286Z,0.00
2018-04-11T03:48:46.306Z,4.00
2018-04-11T03:49:46.332Z,0.00
2018-04-11T03:50:46.346Z,0.00
2018-04-11T03:51:46.367Z,0.00
2018-04-11T03:52:46.386Z,0.00
2018-04-11T03:53:46.409Z,0.00
2018-04-11T03:54:46.484Z,0.00
2018-04-11T03:55:46.451Z,4.00
2018-04-11T03:56:46.478Z,4.00
2018-04-11T03:57:46.494Z,4.00
2018-04-11T03:58:46.512Z,0.00
2018-04-11T03:59:46.533Z,4.00
2018-04-11T04:00:46.559Z,4.00
2018-04-11T04:01:46.579Z,0.00
2018-04-11T04:02:46.595Z,0.00
2018-04-11T04:03:46.619Z,4.00
2018-04-11T04:04:46.639Z,8.00
2018-04-11T04:05:46.658Z,4.00
2018-04-11T04:06:46.697Z,8.00
2018-04-11T04:07:46.700Z,4.00
2018-04-11T04:08:46.720Z,8.00
2018-04-11T04:09:46.743Z,8.00
2018-04-11T04:10:46.764Z,12.00
2018-04-11T04:11:46.781Z,16.00
2018-04-11T04:12:46.801Z,12.00
2018-04-11T04:13:46.833Z,20.00
2018-04-11T04:14:46.846Z,20.00
2018-04-11T04:15:46.867Z,24.00
2018-04-11T04:16:46.888Z,28.00
2018-04-11T04:17:46.909Z,28.00
2018-04-11T04:18:46.923Z,36.00
2018-04-11T04:19:46.960Z,40.00
2018-04-11T04:20:46.968Z,44.00
2018-04-11T04:21:46.989Z,52.00
2018-04-11T04:22:47.012Z,60.00
2018-04-11T04:23:47.029Z,64.00
2018-04-11T04:24:47.049Z,76.00
2018-04-11T04:25:47.074Z,80.00
2018-04-11T04:26:47.093Z,88.00
2018-04-11T04:27:47.119Z,92.00
2018-04-11T04:28:47.133Z,96.00
2018-04-11T04:29:47.154Z,104.00
2018-04-11T04:30:47.172Z,112.00
2018-04-11T04:31:47.200Z,124.00
2018-04-11T04:32:47.220Z,136.00
2018-04-11T04:33:47.237Z,156.00
2018-04-11T04:34:47.258Z,172.00
2018-04-11T04:35:47.280Z,196.00
2018-04-11T04:36:47.297Z,224.00
2018-04-11T04:37:47.318Z,252.00
2018-04-11T04:38:47.342Z,276.00
2018-04-11T04:39:47.365Z,296.00
2018-04-11T04:40:47.388Z,328.00
2018-04-11T04:41:47.400Z,340.00
2018-04-11T04:42:47.423Z,368.00
2018-04-11T04:43:47.448Z,396.00
2018-04-11T04:44:47.466Z,424.00
2018-04-11T04:45:47.490Z,448.00
2018-04-11T04:46:47.509Z,444.00
2018-04-11T04:47:47.529Z,472.00
2018-04-11T04:48:47.548Z,480.00
2018-04-11T04:49:47.571Z,480.00
2018-04-11T04:50:47.594Z,504.00
2018-04-11T04:51:47.614Z,524.00
2018-04-11T04:52:47.630Z,552.00
2018-04-11T04:53:47.660Z,580.00
2018-04-11T04:54:47.680Z,624.00
2018-04-11T04:55:47.696Z,648.00
2018-04-11T04:56:47.715Z,660.00
2018-04-11T04:57:47.739Z,708.00
2018-04-11T04:58:47.755Z,740.00
2018-04-11T04:59:47.780Z,792.00
2018-04-11T05:00:47.801Z,816.00
2018-04-11T05:01:47.820Z,872.00
2018-04-11T05:02:47.840Z,896.00
2018-04-11T05:03:47.860Z,972.00
2018-04-11T05:04:47.884Z,1008.00
2018-04-11T05:05:47.901Z,1100.00
2018-04-11T05:06:47.925Z,1140.00
2018-04-11T05:07:47.945Z,1188.00
2018-04-11T05:08:47.969Z,1192.00
2018-04-11T05:09:47.987Z,1204.00
2018-04-11T05:10:48.018Z,1200.00
2018-04-11T05:11:48.029Z,1188.00
2018-04-11T05:12:48.052Z,1228.00
2018-04-11T05:13:48.077Z,1200.00
2018-04-11T05:14:48.092Z,1200.00
2018-04-11T05:15:48.111Z,1240.00
2018-04-11T05:16:48.135Z,1256.00
2018-04-11T05:17:48.151Z,1288.00
2018-04-11T05:18:48.175Z,1276.00
2018-04-11T05:19:48.200Z,1244.00
2018-04-11T05:20:48.220Z,1292.00
2018-04-11T05:21:48.247Z,1324.00
2018-04-11T05:22:48.261Z,1324.00
2018-04-11T05:23:48.280Z,1452.00
2018-04-11T05:24:48.300Z,1384.00
2018-04-11T05:25:48.326Z,1368.00
2018-04-11T05:26:48.342Z,1360.00
2018-04-11T05:27:48.364Z,1428.00
2018-04-11T05:28:48.386Z,1472.00
2018-04-11T05:29:48.408Z,1512.00
2018-04-11T05:30:48.436Z,1592.00
2018-04-11T05:31:48.450Z,1620.00
2018-04-11T05:32:48.473Z,1720.00
2018-04-11T05:33:48.491Z,1656.00
2018-04-11T05:34:48.513Z,1764.00
2018-04-11T05:35:48.532Z,1776.00
2018-04-11T05:36:48.553Z,1812.00
2018-04-11T05:37:48.581Z,1812.00
2018-04-11T05:38:48.592Z,1912.00
2018-04-11T05:39:48.618Z,1908.00
2018-04-11T05:40:48.641Z,1952.00
2018-04-11T05:41:48.654Z,2016.00
2018-04-11T05:42:48.677Z,2020.00
2018-04-11T05:43:48.698Z,2040.00
2018-04-11T05:44:48.722Z,2216.00
2018-04-11T05:45:48.742Z,2112.00
2018-04-11T05:46:48.761Z,2284.00
2018-04-11T05:47:48.783Z,2168.00
2018-04-11T05:48:48.810Z,1976.00
2018-04-11T05:49:48.831Z,2076.00
2018-04-11T05:50:48.845Z,2052.00
2018-04-11T05:51:48.868Z,2044.00
2018-04-11T05:52:48.889Z,2172.00
2018-04-11T05:53:48.913Z,2248.00
2018-04-11T05:54:48.933Z,2368.00
2018-04-11T05:55:48.966Z,2444.00
2018-04-11T05:56:48.975Z,2452.00
2018-04-11T05:57:48.998Z,2480.00
2018-04-11T05:58:49.023Z,2660.00
2018-04-11T05:59:49.039Z,2664.00
2018-04-11T06:00:49.061Z,2764.00
2018-04-11T06:01:49.085Z,2628.00
2018-04-11T06:02:49.110Z,2644.00
2018-04-11T06:03:49.125Z,2716.00
2018-04-11T06:04:49.149Z,3000.00
2018-04-11T06:05:49.174Z,2836.00
2018-04-11T06:06:49.188Z,2888.00
2018-04-11T06:07:49.206Z,3096.00
2018-04-11T06:08:49.230Z,2820.00
2018-04-11T06:09:49.250Z,2876.00
2018-04-11T06:10:49.271Z,2948.00
2018-04-11T06:11:49.295Z,2976.00
2018-04-11T06:12:49.319Z,3000.00
2018-04-11T06:13:49.337Z,2980.00
2018-04-11T06:14:49.360Z,2752.00
2018-04-11T06:15:49.376Z,2856.00
2018-04-11T06:16:49.399Z,3100.00
2018-04-11T06:17:49.430Z,3132.00
2018-04-11T06:18:49.444Z,3160.00
2018-04-11T06:19:49.466Z,3252.00
2018-04-11T06:20:49.484Z,3228.00
2018-04-11T06:21:49.508Z,3520.00
2018-04-11T06:22:49.585Z,3100.00
2018-04-11T06:23:49.553Z,3200.00
2018-04-11T06:24:49.575Z,3424.00
2018-04-11T06:25:49.600Z,3244.00
2018-04-11T06:26:49.621Z,3164.00
2018-04-11T06:27:49.636Z,3312.00
2018-04-11T06:28:49.658Z,3400.00
2018-04-11T06:29:49.693Z,3316.00
2018-04-11T06:30:49.698Z,3520.00
2018-04-11T06:31:49.727Z,3636.00
2018-04-11T06:32:49.753Z,3664.00
2018-04-11T06:33:49.815Z,3604.00
2018-04-11T06:34:49.789Z,3708.00
2018-04-11T06:35:49.805Z,3896.00
2018-04-11T06:36:49.839Z,4336.00
2018-04-11T06:37:49.857Z,4372.00
2018-04-11T06:38:49.871Z,4076.00
2018-04-11T06:39:49.891Z,4092.00
2018-04-11T06:40:49.917Z,4672.00
2018-04-11T06:41:49.935Z,4296.00
2018-04-11T06:42:49.958Z,4596.00
2018-04-11T06:43:49.977Z,4592.00
2018-04-11T06:44:50.007Z,4632.00
2018-04-11T06:45:50.023Z,4376.00
2018-04-11T06:46:50.043Z,4288.00
2018-04-11T06:47:50.068Z,4652.00
2018-04-11T06:48:50.093Z,4884.00
2018-04-11T06:49:50.116Z,4916.00
2018-04-11T06:50:50.134Z,4956.00
2018-04-11T06:51:50.152Z,4836.00
2018-04-11T06:52:50.173Z,5128.00
2018-04-11T06:53:50.200Z,4916.00
2018-04-11T06:54:50.221Z,4836.00
2018-04-11T06:55:50.244Z,5164.00
2018-04-11T06:56:50.275Z,4620.00
2018-04-11T06:57:50.283Z,4716.00
2018-04-11T06:58:50.311Z,4824.00
2018-04-11T06:59:50.328Z,5016.00
2018-04-11T07:00:50.347Z,4920.00
2018-04-11T07:01:50.376Z,4820.00
2018-04-11T07:02:50.392Z,5352.00
2018-04-11T07:03:50.413Z,5420.00
2018-04-11T07:04:50.438Z,5344.00
2018-04-11T07:05:50.459Z,5240.00
2018-04-11T07:06:50.483Z,5324.00
2018-04-11T07:07:50.501Z,5540.00
2018-04-11T07:08:50.539Z,5856.00
2018-04-11T07:09:50.545Z,5364.00
2018-04-11T07:10:50.569Z,5704.00
2018-04-11T07:11:50.591Z,5516.00
2018-04-11T07:12:50.623Z,5704.00
2018-04-11T07:13:50.633Z,6176.00
2018-04-11T07:14:50.658Z,5472.00
2018-04-11T07:15:50.678Z,5344.00
2018-04-11T07:16:50.702Z,5080.00
2018-04-11T07:17:50.727Z,5028.00
2018-04-11T07:18:50.741Z,5440.00
2018-04-11T07:19:50.777Z,5376.00
2018-04-11T07:20:50.795Z,5656.00
2018-04-11T07:21:50.813Z,5456.00
2018-04-11T07:22:50.843Z,5476.00
2018-04-11T07:23:50.855Z,5740.00
2018-04-11T07:24:50.873Z,5696.00
2018-04-11T07:25:50.936Z,5760.00
2018-04-11T07:26:50.923Z,5984.00
2018-04-11T07:27:50.945Z,6444.00
2018-04-11T07:28:50.964Z,6384.00
2018-04-11T07:29:50.986Z,6640.00
2018-04-11T07:30:51.007Z,6652.00
2018-04-11T07:31:51.031Z,6508.00
2018-04-11T07:32:51.055Z,6804.00
2018-04-11T07:33:51.122Z,6552.00
2018-04-11T07:34:51.094Z,7488.00
2018-04-11T07:35:51.117Z,7284.00
2018-04-11T07:36:51.140Z,6968.00
2018-04-11T07:37:51.168Z,7144.00
2018-04-11T07:38:51.188Z,7140.00
2018-04-11T07:39:51.211Z,7444.00
2018-04-11T07:40:51.230Z,7068.00
2018-04-11T07:41:51.253Z,7080.00
2018-04-11T07:42:51.271Z,7336.00
2018-04-11T07:43:51.294Z,6600.00
2018-04-11T07:44:51.322Z,7024.00
2018-04-11T07:45:51.343Z,7260.00
2018-04-11T07:46:51.362Z,6704.00
2018-04-11T07:47:51.388Z,6268.00
2018-04-11T07:48:51.411Z,6576.00
2018-04-11T07:49:51.433Z,6792.00
2018-04-11T07:50:51.448Z,6908.00
2018-04-11T07:51:51.473Z,7172.00
2018-04-11T07:52:51.495Z,6896.00
2018-04-11T07:53:51.518Z,7148.00
2018-04-11T07:54:51.540Z,6880.00
2018-04-11T07:55:51.560Z,7464.00
2018-04-11T07:56:51.588Z,7180.00
2018-04-11T07:57:51.611Z,7804.00
2018-04-11T07:58:51.627Z,8064.00
2018-04-11T07:59:51.663Z,7840.00
2018-04-11T08:00:51.684Z,7964.00
2018-04-11T08:01:51.698Z,9024.00
2018-04-11T08:02:51.717Z,9312.00
2018-04-11T08:03:51.746Z,9100.00
2018-04-11T08:04:51.769Z,9492.00
2018-04-11T08:05:51.789Z,10044.00
2018-04-11T08:06:51.808Z,9156.00
2018-04-11T08:07:51.836Z,8996.00
2018-04-11T08:08:51.856Z,9960.00
2018-04-11T08:09:51.878Z,9360.00
2018-04-11T08:10:51.897Z,8444.00
2018-04-11T08:11:51.924Z,9736.00
2018-04-11T08:12:51.952Z,9960.00
2018-04-11T08:13:51.968Z,9772.00
2018-04-11T08:14:51.997Z,8936.00
2018-04-11T08:15:52.016Z,9360.00
2018-04-11T08:16:52.039Z,11288.00
2018-04-11T08:17:52.064Z,9524.00
2018-04-11T08:18:52.087Z,9088.00
2018-04-11T08:19:52.113Z,9628.00
2018-04-11T08:20:52.131Z,8912.00
2018-04-11T08:21:52.152Z,8768.00
2018-04-11T08:22:52.172Z,8660.00
2018-04-11T08:23:52.200Z,8660.00
2018-04-11T08:24:52.226Z,9936.00
2018-04-11T08:25:52.241Z,10844.00
2018-04-11T08:26:52.271Z,10552.00
2018-04-11T08:27:52.287Z,11076.00
2018-04-11T08:28:52.321Z,11864.00
2018-04-11T08:29:52.396Z,12364.00
2018-04-11T08:30:52.375Z,11856.00
2018-04-11T08:31:52.381Z,11508.00
2018-04-11T08:32:52.406Z,11952.00
2018-04-11T08:33:52.438Z,12496.00
2018-04-11T08:34:52.461Z,11784.00
2018-04-11T08:35:52.476Z,11532.00
2018-04-11T08:36:52.503Z,11588.00
2018-04-11T08:37:52.526Z,10996.00
2018-04-11T08:38:52.558Z,11460.00
2018-04-11T08:39:52.571Z,11444.00
2018-04-11T08:40:52.595Z,11328.00
2018-04-11T08:41:52.618Z,11564.00
2018-04-11T08:42:52.641Z,11852.00
2018-04-11T08:43:52.671Z,13128.00
2018-04-11T08:44:52.693Z,12380.00
2018-04-11T08:45:52.714Z,13156.00
2018-04-11T08:46:52.740Z,13764.00
2018-04-11T08:47:52.761Z,10532.00
2018-04-11T08:48:52.794Z,12528.00
2018-04-11T08:49:52.822Z,13604.00
2018-04-11T08:50:52.831Z,14432.00
2018-04-11T08:51:52.856Z,12944.00
2018-04-11T08:52:52.881Z,13244.00
2018-04-11T08:53:52.906Z,14704.00
2018-04-11T08:54:52.929Z,14132.00
2018-04-11T08:55:52.956Z,14828.00
2018-04-11T08:56:52.979Z,14992.00
2018-04-11T08:57:53.008Z,15040.00
2018-04-11T08:58:53.031Z,14836.00
2018-04-11T08:59:53.056Z,15560.00
2018-04-11T09:00:53.082Z,15012.00
2018-04-11T09:01:53.103Z,12788.00
2018-04-11T09:02:53.121Z,11660.00
2018-04-11T09:03:53.152Z,11872.00
2018-04-11T09:04:53.175Z,11268.00
2018-04-11T09:05:53.196Z,14876.00
2018-04-11T09:06:53.223Z,17116.00
2018-04-11T09:07:53.249Z,14648.00
2018-04-11T09:08:53.271Z,14084.00
2018-04-11T09:09:53.296Z,14868.00
2018-04-11T09:10:53.321Z,16604.00
2018-04-11T09:11:53.340Z,16240.00
2018-04-11T09:12:53.365Z,15432.00
2018-04-11T09:13:53.391Z,15060.00
2018-04-11T09:14:53.415Z,15792.00
2018-04-11T09:15:53.447Z,15816.00
2018-04-11T09:16:53.465Z,15520.00
2018-04-11T09:17:53.489Z,16024.00
2018-04-11T09:18:53.515Z,15448.00
2018-04-11T09:19:53.538Z,14288.00
2018-04-11T09:20:53.565Z,13692.00
2018-04-11T09:21:53.594Z,14696.00
2018-04-11T09:22:53.611Z,15496.00
2018-04-11T09:23:53.642Z,15104.00
2018-04-11T09:24:53.667Z,14976.00
2018-04-11T09:25:53.696Z,14268.00
2018-04-11T09:26:53.714Z,14984.00
2018-04-11T09:27:53.743Z,15592.00
2018-04-11T09:28:53.762Z,15512.00
2018-04-11T09:29:53.794Z,15552.00
2018-04-11T09:30:53.813Z,15592.00
2018-04-11T09:31:53.905Z,15640.00
2018-04-11T09:32:53.867Z,15916.00
2018-04-11T09:33:53.890Z,16876.00
2018-04-11T09:34:53.916Z,17044.00
2018-04-11T09:35:53.938Z,18080.00
2018-04-11T09:36:53.964Z,17536.00
2018-04-11T09:37:53.986Z,16820.00
2018-04-11T09:38:54.007Z,16280.00
2018-04-11T09:39:54.033Z,16588.00
2018-04-11T09:40:54.059Z,16912.00
2018-04-11T09:41:54.104Z,16392.00
2018-04-11T09:42:54.163Z,19648.00
2018-04-11T09:43:54.134Z,19456.00
2018-04-11T09:44:54.167Z,20800.00
2018-04-11T09:45:54.187Z,21312.00
2018-04-11T09:46:54.208Z,21184.00
2018-04-11T09:47:54.238Z,20480.00
2018-04-11T09:48:54.257Z,20128.00
2018-04-11T09:49:54.284Z,21088.00
2018-04-11T09:50:54.308Z,20608.00
2018-04-11T09:51:54.353Z,20832.00
2018-04-11T09:52:54.359Z,19776.00
2018-04-11T09:53:54.384Z,19136.00
2018-04-11T09:54:54.412Z,17888.00
2018-04-11T09:55:54.452Z,17360.00
2018-04-11T09:56:54.462Z,18688.00
2018-04-11T09:57:54.488Z,19200.00
2018-04-11T09:58:54.512Z,19296.00
2018-04-11T09:59:54.542Z,19232.00
2018-04-11T10:00:54.564Z,19904.00
2018-04-11T10:01:54.588Z,19968.00
2018-04-11T10:02:54.629Z,19712.00
2018-04-11T10:03:54.641Z,18784.00
2018-04-11T10:04:54.669Z,18816.00
2018-04-11T10:05:54.697Z,22336.00
2018-04-11T10:06:54.734Z,23392.00
2018-04-11T10:07:54.748Z,22528.00
2018-04-11T10:08:54.771Z,22336.00
2018-04-11T10:09:54.795Z,22208.00
2018-04-11T10:10:54.818Z,22048.00
2018-04-11T10:11:54.842Z,21888.00
2018-04-11T10:12:54.871Z,22656.00
2018-04-11T10:13:54.897Z,20352.00
2018-04-11T10:14:54.921Z,21408.00
2018-04-11T10:15:54.947Z,22848.00
2018-04-11T10:16:54.973Z,21248.00
2018-04-11T10:17:55.004Z,22688.00
2018-04-11T10:18:55.033Z,23360.00
2018-04-11T10:19:55.051Z,24000.00
2018-04-11T10:20:55.076Z,24192.00
2018-04-11T10:21:55.105Z,22656.00
2018-04-11T10:22:55.127Z,20736.00
2018-04-11T10:23:55.152Z,21056.00
2018-04-11T10:24:55.211Z,21792.00
2018-04-11T10:25:55.217Z,20608.00
2018-04-11T10:26:55.247Z,19840.00
2018-04-11T10:27:55.267Z,21408.00
2018-04-11T10:28:55.286Z,20832.00
2018-04-11T10:29:55.312Z,20544.00
2018-04-11T10:30:55.344Z,20704.00
2018-04-11T10:31:55.381Z,18912.00
2018-04-11T10:32:55.392Z,19232.00
2018-04-11T10:33:55.417Z,19200.00
2018-04-11T10:34:55.444Z,19392.00
2018-04-11T10:35:55.469Z,18836.00
2018-04-11T10:36:55.503Z,19328.00
2018-04-11T10:37:55.524Z,20096.00
2018-04-11T10:38:55.552Z,23296.00
2018-04-11T10:39:55.572Z,25248.00
2018-04-11T10:40:55.597Z,22976.00
2018-04-11T10:41:55.619Z,21664.00
2018-04-11T10:42:55.653Z,21888.00
2018-04-11T10:43:55.680Z,21984.00
2018-04-11T10:44:55.704Z,26112.00
2018-04-11T10:45:55.735Z,27744.00
2018-04-11T10:46:55.759Z,28800.00
2018-04-11T10:47:55.785Z,28256.00
2018-04-11T10:48:55.808Z,28256.00
2018-04-11T10:49:55.835Z,26496.00
2018-04-11T10:50:55.861Z,24128.00
2018-04-11T10:51:55.893Z,26784.00
2018-04-11T10:52:55.911Z,30560.00
2018-04-11T10:53:55.936Z,26880.00
2018-04-11T10:54:55.989Z,27808.00
2018-04-11T10:55:55.995Z,27264.00
2018-04-11T10:56:56.025Z,23552.00
2018-04-11T10:57:56.044Z,22304.00
2018-04-11T10:58:56.083Z,21984.00
2018-04-11T10:59:56.106Z,24608.00
2018-04-11T11:00:56.128Z,26624.00
2018-04-11T11:01:56.154Z,26048.00
2018-04-11T11:02:56.183Z,23136.00
2018-04-11T11:03:56.220Z,22208.00
2018-04-11T11:04:56.238Z,38816.00
2018-04-11T11:05:56.263Z,38240.00
2018-04-11T11:06:56.289Z,33216.00
2018-04-11T11:07:56.318Z,30176.00
2018-04-11T11:08:56.345Z,26592.00
2018-04-11T11:09:56.368Z,23360.00
2018-04-11T11:10:56.407Z,24832.00
2018-04-11T11:11:56.425Z,33312.00
2018-04-11T11:12:56.453Z,26720.00
2018-04-11T11:13:56.480Z,31072.00
2018-04-11T11:14:56.508Z,41760.00
2018-04-11T11:15:56.536Z,41728.00
2018-04-11T11:16:56.565Z,41824.00
2018-04-11T11:17:56.594Z,42048.00
2018-04-11T11:18:56.619Z,44000.00
2018-04-11T11:19:56.651Z,43584.00
2018-04-11T11:20:56.675Z,43936.00
2018-04-11T11:21:56.709Z,44960.00
2018-04-11T11:22:56.740Z,26688.00
2018-04-11T11:23:56.763Z,42176.00
2018-04-11T11:24:56.814Z,45760.00
2018-04-11T11:25:56.822Z,45024.00
2018-04-11T11:26:56.865Z,43680.00
2018-04-11T11:27:56.877Z,43680.00
2018-04-11T11:28:56.910Z,46880.00
2018-04-11T11:29:56.933Z,48352.00
2018-04-11T11:30:56.961Z,46464.00
2018-04-11T11:31:56.992Z,51488.00
2018-04-11T11:32:57.028Z,51872.00
2018-04-11T11:33:57.066Z,46336.00
2018-04-11T11:34:57.083Z,54816.00
2018-04-11T11:35:57.115Z,55328.00
2018-04-11T11:36:57.147Z,54848.00
2018-04-11T11:37:57.178Z,53856.00
2018-04-11T11:38:57.213Z,52896.00
2018-04-11T11:39:57.241Z,53984.00
2018-04-11T11:40:57.282Z,53920.00
2018-04-11T11:41:57.303Z,44544.00
2018-04-11T11:42:57.336Z,31072.00
2018-04-11T11:43:57.362Z,24128.00
2018-04-11T11:44:57.398Z,26592.00
2018-04-11T11:45:57.437Z,28448.00
2018-04-11T11:46:57.459Z,55456.00
2018-04-11T11:47:57.496Z,52960.00
2018-04-11T11:48:57.526Z,46048.00
2018-04-11T11:49:57.557Z,59744.00
2018-04-11T11:50:57.588Z,62592.00
2018-04-11T11:51:57.620Z,48032.00
2018-04-11T11:52:57.649Z,28064.00
2018-04-11T11:53:57.683Z,41952.00
2018-04-11T11:54:57.707Z,33216.00
2018-04-11T11:55:57.745Z,32704.00
2018-04-11T11:56:57.781Z,25504.00
2018-04-11T11:57:57.806Z,23872.00
2018-04-11T11:58:57.835Z,22560.00
2018-04-11T11:59:57.867Z,21888.00
2018-04-11T12:00:57.899Z,22080.00
2018-04-11T12:01:57.928Z,22752.00
2018-04-11T12:02:57.957Z,21888.00
2018-04-11T12:03:57.990Z,19712.00
2018-04-11T12:04:58.029Z,19424.00
2018-04-11T12:05:58.051Z,24416.00
2018-04-11T12:06:58.077Z,26432.00
2018-04-11T12:07:58.119Z,40992.00
2018-04-11T12:08:58.141Z,36704.00
2018-04-11T12:09:58.174Z,28000.00
2018-04-11T12:10:58.200Z,35488.00
2018-04-11T12:11:58.226Z,39200.00
2018-04-11T12:12:58.258Z,32224.00
2018-04-11T12:13:58.287Z,56064.00
2018-04-11T12:14:58.316Z,48608.00
2018-04-11T12:15:58.346Z,41920.00
2018-04-11T12:16:58.376Z,27072.00
2018-04-11T12:17:58.410Z,26976.00
2018-04-11T12:18:58.437Z,22688.00
2018-04-11T12:19:58.466Z,22560.00
2018-04-11T12:20:58.495Z,25856.00
2018-04-11T12:21:58.526Z,20448.00
2018-04-11T12:22:58.553Z,15216.00
2018-04-11T12:23:58.590Z,18208.00